Time;durP1;ratioP1;P1;durP2;ratioP2;P2;SDS_P1;SDS_P2;PMS_P1;PMS_P2;Temp;Humidity;BMP_temperature;BMP_pressure;BME280_temperature;BME280_humidity;BME280_pressure;Samples;Min_cycle;Max_cycle;Signal;HPM_P1;HPM_P2
2022/12/22 05:01:18;;;;;;;7.25;1.45;;;10.90;99.90;;;;;;5541655;23;20097;-68
2022/12/22 05:03:43;;;;;;;7.57;1.20;;;11.00;99.90;;;;;;4997364;28;20143;-67
2022/12/22 05:06:10;;;;;;;4.40;0.80;;;11.00;99.90;;;;;;4988610;28;20109;-68
2022/12/22 05:08:35;;;;;;;6.18;1.10;;;11.00;99.90;;;;;;4995355;28;20061;-68
2022/12/22 05:11:04;;;;;;;4.25;1.27;;;11.00;99.90;;;;;;4996052;28;20038;-68
2022/12/22 05:13:31;;;;;;;3.78;1.02;;;11.00;99.90;;;;;;4994939;28;20057;-67
2022/12/22 05:16:08;;;;;;;5.25;1.08;;;11.00;99.90;;;;;;4994602;28;20506;-68
2022/12/22 05:18:35;;;;;;;4.75;1.20;;;11.00;99.90;;;;;;4978113;28;20035;-68
2022/12/22 05:21:08;;;;;;;5.75;1.50;;;11.10;99.90;;;;;;4986661;28;20478;-67
2022/12/22 05:23:33;;;;;;;2.92;1.05;;;11.00;99.90;;;;;;4996794;28;20076;-67
2022/12/22 05:25:59;;;;;;;6.33;1.27;;;11.10;99.90;;;;;;4978035;28;20513;-68
2022/12/22 05:28:24;;;;;;;5.13;1.00;;;11.10;99.90;;;;;;4983780;28;20447;-68
2022/12/22 05:30:50;;;;;;;4.37;0.97;;;11.20;99.90;;;;;;4976521;28;20138;-68
2022/12/22 05:33:16;;;;;;;8.00;1.20;;;11.20;99.90;;;;;;4994831;28;20053;-68
2022/12/22 05:35:41;;;;;;;4.60;1.47;;;11.20;99.90;;;;;;4992160;28;20023;-67
2022/12/22 05:38:06;;;;;;;3.83;0.90;;;11.30;99.90;;;;;;4975040;28;20361;-67
2022/12/22 05:40:32;;;;;;;5.10;0.90;;;11.30;99.90;;;;;;4979664;28;20033;-67
2022/12/22 05:42:57;;;;;;;5.70;1.03;;;11.20;99.90;;;;;;4983101;28;20022;-67
2022/12/22 05:45:23;;;;;;;2.83;1.10;;;11.30;99.90;;;;;;4975927;28;20031;-67
2022/12/22 05:47:50;;;;;;;4.60;1.03;;;11.40;99.90;;;;;;4971214;28;20023;-68
2022/12/22 05:50:20;;;;;;;9.48;1.77;;;11.40;99.90;;;;;;4969749;28;20027;-67
2022/12/22 05:52:45;;;;;;;8.05;1.35;;;11.40;99.90;;;;;;4974974;28;20031;-68
2022/12/22 05:55:13;;;;;;;5.47;1.17;;;11.40;99.90;;;;;;4975858;28;20106;-67
2022/12/22 05:57:38;;;;;;;7.30;1.40;;;11.30;99.90;;;;;;4975062;28;20023;-68
2022/12/22 06:00:13;;;;;;;6.20;1.40;;;11.30;99.90;;;;;;4975629;28;20073;-68
2022/12/22 06:02:39;;;;;;;9.15;1.20;;;11.40;99.90;;;;;;4976213;28;20061;-69
2022/12/22 06:05:05;;;;;;;6.55;1.42;;;11.40;99.90;;;;;;4975571;28;20138;-67
2022/12/22 06:07:31;;;;;;;7.07;1.58;;;11.40;99.90;;;;;;4975971;28;20137;-69
2022/12/22 06:09:56;;;;;;;5.93;1.20;;;11.40;99.90;;;;;;4976094;28;20547;-69
2022/12/22 06:12:22;;;;;;;10.90;1.80;;;11.40;99.90;;;;;;4975884;28;20061;-67
2022/12/22 06:14:47;;;;;;;3.67;0.87;;;11.40;99.90;;;;;;4978598;28;20031;-68
2022/12/22 06:17:13;;;;;;;6.90;2.07;;;11.40;99.90;;;;;;4977496;28;20403;-68
2022/12/22 06:19:38;;;;;;;10.53;2.97;;;11.50;99.90;;;;;;4975156;28;20023;-68
2022/12/22 06:22:04;;;;;;;10.97;2.30;;;11.40;99.90;;;;;;4975696;28;20029;-68
2022/12/22 06:24:30;;;;;;;7.20;1.60;;;11.50;99.90;;;;;;4974752;28;20026;-68
2022/12/22 06:26:55;;;;;;;7.90;1.50;;;11.60;99.90;;;;;;4974930;28;20105;-67
2022/12/22 06:29:21;;;;;;;7.57;1.20;;;11.60;99.90;;;;;;4974536;28;20027;-67
2022/12/22 06:31:47;;;;;;;9.63;1.93;;;11.60;99.90;;;;;;4975242;28;20042;-68
2022/12/22 06:34:12;;;;;;;5.53;1.13;;;11.70;99.90;;;;;;4974287;28;20097;-67
2022/12/22 06:36:38;;;;;;;8.30;1.40;;;11.80;99.90;;;;;;4975600;28;20034;-67
2022/12/22 06:39:06;;;;;;;10.87;1.87;;;11.80;99.90;;;;;;4975356;28;20388;-67
2022/12/22 06:44:16;;;;;;;8.82;1.40;;;11.90;99.90;;;;;;4975187;28;20045;-67
2022/12/22 06:46:41;;;;;;;7.77;1.83;;;11.80;99.90;;;;;;4974148;28;20034;-69
2022/12/22 06:49:06;;;;;;;8.93;1.87;;;11.70;99.90;;;;;;4974678;28;20435;-68
2022/12/22 06:51:32;;;;;;;9.17;1.53;;;11.70;99.90;;;;;;4973426;28;20076;-68
2022/12/22 06:53:57;;;;;;;11.20;1.93;;;11.60;99.90;;;;;;4974585;28;20018;-69
2022/12/22 06:56:23;;;;;;;7.73;1.67;;;11.60;99.90;;;;;;4974951;28;20166;-68
2022/12/22 06:58:48;;;;;;;9.50;1.77;;;11.60;99.90;;;;;;4975082;28;20023;-67
2022/12/22 07:01:16;;;;;;;10.40;1.67;;;11.60;99.90;;;;;;4976055;28;20403;-68
2022/12/22 07:03:42;;;;;;;7.80;1.70;;;11.70;99.90;;;;;;4976240;28;20038;-68
2022/12/22 07:06:07;;;;;;;5.47;1.30;;;11.80;99.90;;;;;;4976429;28;20488;-68
2022/12/22 07:08:35;;;;;;;6.67;1.50;;;11.80;99.90;;;;;;4975549;28;20074;-68
2022/12/22 07:11:01;;;;;;;6.60;1.50;;;11.90;99.90;;;;;;4973711;28;20023;-69
2022/12/22 07:13:33;;;;;;;9.33;2.20;;;11.90;99.90;;;;;;4989845;28;20073;-69
2022/12/22 07:16:03;;;;;;;11.23;1.85;;;12.00;99.90;;;;;;4972907;28;20027;-68
2022/12/22 07:18:31;;;;;;;12.80;2.47;;;12.00;99.90;;;;;;4974508;28;20102;-69
2022/12/22 07:20:57;;;;;;;9.93;2.13;;;11.90;99.90;;;;;;4974571;28;20078;-69
2022/12/22 07:23:23;;;;;;;8.20;1.73;;;12.00;99.90;;;;;;4975085;28;20435;-67
2022/12/22 07:25:49;;;;;;;8.23;1.40;;;12.00;99.90;;;;;;4974797;28;20053;-68
2022/12/22 07:28:14;;;;;;;5.17;1.57;;;12.10;99.90;;;;;;4974361;28;20035;-68
2022/12/22 07:30:40;;;;;;;10.73;2.10;;;12.10;99.90;;;;;;4974206;28;20031;-68
2022/12/22 07:33:06;;;;;;;9.63;1.70;;;12.10;99.90;;;;;;4973558;28;20106;-68
2022/12/22 07:35:31;;;;;;;10.00;1.53;;;12.10;99.90;;;;;;4974992;28;20110;-69
2022/12/22 07:37:57;;;;;;;8.27;1.43;;;12.20;99.90;;;;;;4974841;28;20035;-68
2022/12/22 07:40:22;;;;;;;11.20;1.67;;;12.20;99.90;;;;;;4974931;28;20078;-67
2022/12/22 07:42:48;;;;;;;11.47;1.70;;;12.20;99.90;;;;;;4972935;28;20480;-68
2022/12/22 07:45:18;;;;;;;8.50;1.67;;;12.20;99.90;;;;;;4974728;28;20030;-68
2022/12/22 07:47:45;;;;;;;9.13;1.90;;;12.20;99.90;;;;;;4978131;28;20113;-69
2022/12/22 07:50:23;;;;;;;;;;;12.20;99.90;;;;;;4978720;28;20023;-68
2022/12/22 07:52:57;;;;;;;9.65;3.15;;;12.20;99.90;;;;;;4978117;28;19912;-67
2022/12/22 07:55:24;;;;;;;9.60;1.80;;;12.10;99.90;;;;;;4978731;28;20511;-67
2022/12/22 07:57:50;;;;;;;10.90;1.90;;;12.10;99.90;;;;;;4978100;28;20133;-67
2022/12/22 08:00:17;;;;;;;8.77;1.98;;;12.20;99.90;;;;;;4977469;28;20022;-68
2022/12/22 08:02:47;;;;;;;8.43;3.13;;;12.20;99.90;;;;;;4977818;28;20077;-67
2022/12/22 08:05:12;;;;;;;12.70;2.95;;;12.20;99.90;;;;;;4980577;28;20053;-68
2022/12/22 08:07:38;;;;;;;8.47;1.90;;;12.30;99.90;;;;;;4981348;28;20046;-68
2022/12/22 08:10:03;;;;;;;12.23;1.90;;;12.30;99.90;;;;;;4982124;28;20030;-68
2022/12/22 08:12:31;;;;;;;36.10;14.10;;;12.30;99.90;;;;;;4982025;28;20030;-68
2022/12/22 08:14:57;;;;;;;12.80;3.15;;;12.30;99.90;;;;;;4977969;28;20026;-68
2022/12/22 08:17:22;;;;;;;13.52;3.20;;;12.40;99.90;;;;;;4976540;28;20027;-68
2022/12/22 08:19:48;;;;;;;9.53;1.83;;;12.30;99.90;;;;;;4977375;28;20189;-67
2022/12/22 08:22:14;;;;;;;9.70;2.47;;;12.40;99.90;;;;;;4977108;28;20038;-68
2022/12/22 08:24:39;;;;;;;11.67;1.93;;;12.30;99.90;;;;;;4977289;28;20602;-69
2022/12/22 08:27:12;;;;;;;8.57;1.40;;;12.30;99.90;;;;;;4977975;28;20041;-68
2022/12/22 08:29:42;;;;;;;11.38;2.53;;;12.30;99.90;;;;;;4977466;28;20101;-68
2022/12/22 08:32:10;;;;;;;11.73;2.13;;;12.30;99.90;;;;;;4976546;28;20492;-68
2022/12/22 08:34:35;;;;;;;11.32;1.63;;;12.30;99.90;;;;;;4977657;28;20034;-68
2022/12/22 08:37:03;;;;;;;11.97;2.23;;;12.30;99.90;;;;;;4976755;28;20015;-68
2022/12/22 08:39:33;;;;;;;6.95;1.75;;;12.40;99.90;;;;;;4977517;28;20031;-69
2022/12/22 08:42:02;;;;;;;12.77;2.10;;;12.50;99.90;;;;;;4977323;28;20081;-68
2022/12/22 08:44:28;;;;;;;11.40;1.88;;;12.40;99.90;;;;;;4978243;28;20038;-70
2022/12/22 08:46:56;;;;;;;11.13;1.85;;;12.40;99.90;;;;;;4977435;28;20480;-73
2022/12/22 08:49:23;;;;;;;13.93;2.28;;;12.30;99.90;;;;;;4977372;28;20026;-70
2022/12/22 08:51:48;;;;;;;8.85;1.95;;;12.20;99.90;;;;;;4977025;28;20063;-72
2022/12/22 08:54:14;;;;;;;9.27;1.80;;;12.10;99.90;;;;;;4975984;28;20027;-70
2022/12/22 08:56:41;;;;;;;12.02;2.20;;;12.00;99.90;;;;;;4975422;28;20022;-69
2022/12/22 08:59:07;;;;;;;8.38;2.08;;;11.80;99.90;;;;;;4991305;28;20030;-70
2022/12/22 09:01:35;;;;;;;10.68;2.47;;;11.80;99.90;;;;;;4976434;28;20118;-69
2022/12/22 09:04:01;;;;;;;12.32;3.03;;;11.70;99.90;;;;;;4977076;28;20062;-70
2022/12/22 09:06:27;;;;;;;12.40;2.20;;;11.60;99.90;;;;;;4976387;28;20026;-70
2022/12/22 09:09:00;;;;;;;8.65;2.13;;;11.60;99.90;;;;;;4974989;28;20877;-70
2022/12/22 09:11:27;;;;;;;10.73;3.13;;;11.60;99.90;;;;;;4957243;29;20421;-70
2022/12/22 09:13:57;;;;;;;14.20;2.50;;;11.60;99.90;;;;;;4983050;28;20065;-71
2022/12/22 09:16:24;;;;;;;11.60;2.55;;;11.50;99.90;;;;;;4977479;28;20110;-70
2022/12/22 09:18:50;;;;;;;11.57;1.95;;;11.50;99.90;;;;;;4975379;28;20488;-69
2022/12/22 09:21:16;;;;;;;12.80;3.23;;;11.50;99.90;;;;;;4991373;28;20066;-70
2022/12/22 09:23:42;;;;;;;8.10;1.58;;;11.40;99.90;;;;;;4975110;28;20069;-70
2022/12/22 09:26:09;;;;;;;19.05;5.07;;;11.30;99.90;;;;;;4976543;28;20031;-69
2022/12/22 09:28:36;;;;;;;13.18;3.63;;;11.20;99.90;;;;;;4975486;28;20033;-70
2022/12/22 09:31:02;;;;;;;18.55;3.58;;;11.30;99.90;;;;;;4976593;28;20150;-71
2022/12/22 09:33:27;;;;;;;10.77;2.40;;;11.20;99.90;;;;;;4976513;28;20518;-68
2022/12/22 09:35:53;;;;;;;12.97;2.07;;;11.10;99.90;;;;;;4976187;28;20035;-69
2022/12/22 09:38:19;;;;;;;14.83;3.10;;;11.10;99.90;;;;;;4975985;28;20085;-70
2022/12/22 09:40:45;;;;;;;16.30;1.98;;;11.10;99.90;;;;;;4975758;28;20026;-70
2022/12/22 09:43:18;;;;;;;9.32;1.73;;;11.00;99.90;;;;;;4976213;28;20449;-70
2022/12/22 09:45:44;;;;;;;10.15;1.98;;;11.00;99.90;;;;;;4975564;28;20026;-69
2022/12/22 09:48:11;;;;;;;;;;;10.90;99.90;;;;;;4976670;28;20110;-70
2022/12/22 09:50:39;;;;;;;11.73;2.53;;;10.90;99.90;;;;;;4975061;28;19917;-71
2022/12/22 09:53:11;;;;;;;7.53;2.15;;;10.90;99.90;;;;;;4974325;28;20031;-70
2022/12/22 09:55:43;;;;;;;12.15;2.30;;;10.90;99.90;;;;;;4990695;28;20027;-69
2022/12/22 09:58:29;;;;;;;11.18;2.75;;;10.90;99.90;;;;;;4975906;28;20101;-69
2022/12/22 10:01:04;;;;;;;11.45;2.20;;;10.90;99.90;;;;;;4974283;28;20039;-69
2022/12/22 10:03:42;;;;;;;13.73;2.83;;;10.90;99.90;;;;;;4974443;28;20039;-69
2022/12/22 10:06:27;;;;;;;7.25;1.95;;;11.00;99.90;;;;;;4976177;28;20035;-69
2022/12/22 10:08:53;;;;;;;11.05;1.80;;;11.10;99.90;;;;;;4974957;28;20031;-70
2022/12/22 10:11:19;;;;;;;13.13;2.43;;;11.20;99.90;;;;;;4990678;28;20026;-69
2022/12/22 10:13:46;;;;;;;10.50;2.00;;;11.20;99.90;;;;;;4977222;28;20266;-69
2022/12/22 10:16:21;;;;;;;10.35;2.20;;;11.20;99.90;;;;;;4978994;28;20411;-70
2022/12/22 10:19:05;;;;;;;10.90;2.40;;;11.20;99.90;;;;;;4978094;28;20079;-69
2022/12/22 10:21:30;;;;;;;10.38;1.88;;;11.30;99.90;;;;;;4976239;28;20103;-70
2022/12/22 10:23:56;;;;;;;7.17;1.93;;;11.40;99.90;;;;;;4975557;28;20122;-71
2022/12/22 10:26:31;;;;;;;7.53;1.70;;;11.40;99.90;;;;;;4974663;28;20035;-70
2022/12/22 10:29:17;;;;;;;9.10;2.45;;;11.30;99.90;;;;;;4973433;28;20037;-70
2022/12/22 10:32:10;;;;;;;8.82;1.90;;;11.30;99.90;;;;;;4954764;29;20118;-69
2022/12/22 10:34:36;;;;;;;7.63;1.75;;;11.30;99.90;;;;;;4955869;28;20122;-68
2022/12/22 10:37:04;;;;;;;14.17;2.30;;;11.30;99.90;;;;;;4968145;28;20109;-68
2022/12/22 10:39:32;;;;;;;10.68;2.30;;;11.30;99.90;;;;;;4974897;28;20058;-70
2022/12/22 10:42:12;;;;;;;7.43;1.67;;;11.30;99.90;;;;;;4974845;28;20383;-66
2022/12/22 10:44:42;;;;;;;9.27;2.30;;;11.30;99.90;;;;;;4975397;28;20113;-69
2022/12/22 10:47:15;;;;;;;9.30;2.22;;;11.20;99.90;;;;;;4975039;28;20134;-68
2022/12/22 10:49:46;;;;;;;10.55;2.38;;;11.10;99.90;;;;;;4974810;28;20035;-68
2022/12/22 10:52:24;;;;;;;12.23;2.75;;;11.10;99.90;;;;;;4989354;28;20055;-69
2022/12/22 10:54:50;;;;;;;10.43;2.05;;;11.10;99.90;;;;;;4974930;28;20026;-67
2022/12/22 10:57:15;;;;;;;8.37;2.00;;;11.00;99.90;;;;;;4975485;28;20025;-68
2022/12/22 10:59:54;;;;;;;10.57;2.33;;;11.00;99.90;;;;;;4974588;28;20110;-68
2022/12/22 11:02:20;;;;;;;8.95;2.00;;;11.00;99.90;;;;;;4971485;28;20031;-68
2022/12/22 11:04:46;;;;;;;13.47;2.33;;;11.00;99.90;;;;;;4974937;28;20037;-66
2022/12/22 11:07:12;;;;;;;;;;;11.00;99.90;;;;;;4974327;28;20035;-68
2022/12/22 11:09:37;;;;;;;7.90;2.42;;;11.00;99.90;;;;;;4974599;28;19918;-68
2022/12/22 11:12:19;;;;;;;9.00;1.97;;;11.00;99.90;;;;;;4989360;28;20074;-70
2022/12/22 11:15:14;;;;;;;11.35;2.33;;;11.00;99.90;;;;;;4996982;23;20483;-72
2022/12/22 11:18:17;;;;;;;13.45;2.10;;;11.00;99.90;;;;;;4955998;29;20367;-73
2022/12/22 11:20:48;;;;;;;11.38;2.05;;;11.10;99.90;;;;;;4955682;28;20395;-73
2022/12/22 11:23:19;;;;;;;8.77;1.98;;;11.10;99.90;;;;;;4972063;28;20031;-72
2022/12/22 11:25:55;;;;;;;15.10;2.65;;;11.10;99.90;;;;;;4975508;28;20034;-73
2022/12/22 11:28:41;;;;;;;9.45;2.13;;;11.10;99.90;;;;;;4973411;28;20033;-71
2022/12/22 11:31:28;;;;;;;8.43;1.67;;;11.10;99.90;;;;;;4974891;28;20133;-73
2022/12/22 11:34:07;;;;;;;8.20;1.77;;;11.00;99.90;;;;;;4973558;28;20031;-72
2022/12/22 11:36:48;;;;;;;12.23;1.67;;;11.00;99.90;;;;;;4974775;28;20361;-73
2022/12/22 11:39:17;;;;;;;12.88;2.30;;;11.00;99.90;;;;;;4974601;28;20053;-72
2022/12/22 11:42:09;;;;;;;16.73;2.17;;;11.00;99.90;;;;;;4975479;28;20031;-74
2022/12/22 11:45:15;;;;;;;16.25;1.98;;;10.90;99.90;;;;;;4975439;28;20033;-76
2022/12/22 11:47:43;;;;;;;12.60;1.83;;;10.90;99.90;;;;;;4938884;29;20036;-77
2022/12/22 11:50:24;;;;;;;8.85;2.00;;;10.90;99.90;;;;;;4937806;29;20187;-74
2022/12/22 11:53:14;;;;;;;17.90;2.63;;;10.90;99.90;;;;;;4937307;29;20044;-70
2022/12/22 11:55:58;;;;;;;17.50;3.80;;;10.80;99.90;;;;;;4976702;28;20027;-69
2022/12/22 11:58:55;;;;;;;17.08;2.55;;;10.80;99.90;;;;;;4977517;28;20026;-69
2022/12/22 12:01:33;;;;;;;13.35;2.60;;;10.80;99.90;;;;;;4953317;29;20496;-69
2022/12/22 12:04:13;;;;;;;10.75;2.38;;;10.80;99.90;;;;;;4938939;29;20430;-69
2022/12/22 12:07:12;;;;;;;17.30;2.60;;;10.80;99.90;;;;;;4955902;29;20377;-70
2022/12/22 12:10:15;;;;;;;11.25;2.72;;;10.90;99.90;;;;;;4943808;29;20027;-69
2022/12/22 12:13:28;;;;;;;12.77;2.40;;;10.80;99.90;;;;;;4937022;29;20071;-69
2022/12/22 12:15:57;;;;;;;11.40;2.40;;;10.90;99.90;;;;;;4924312;29;20032;-68
2022/12/22 12:18:37;;;;;;;13.73;6.32;;;10.80;99.90;;;;;;4936784;29;20114;-65
2022/12/22 12:21:30;;;;;;;24.15;2.30;;;10.80;99.90;;;;;;4922121;29;20059;-68
2022/12/22 12:24:22;;;;;;;16.80;2.65;;;10.70;99.90;;;;;;4918769;29;20122;-66
2022/12/22 12:26:47;;;;;;;15.98;2.92;;;10.70;99.90;;;;;;4938905;29;20031;-67
2022/12/22 12:29:20;;;;;;;13.70;2.90;;;10.70;99.90;;;;;;4936974;29;20481;-67
2022/12/22 12:31:54;;;;;;;14.23;2.42;;;10.70;99.90;;;;;;4923007;29;20417;-65
2022/12/22 12:34:21;;;;;;;16.23;2.67;;;10.60;99.90;;;;;;4951783;28;20023;-67
2022/12/22 12:37:06;;;;;;;12.07;2.72;;;10.70;99.90;;;;;;4957032;29;20020;-67
2022/12/22 12:40:05;;;;;;;12.30;2.65;;;10.70;99.90;;;;;;4962455;29;20027;-69
2022/12/22 12:42:38;;;;;;;15.63;3.13;;;10.70;99.90;;;;;;4961439;28;20031;-70
2022/12/22 12:45:44;;;;;;;17.33;3.58;;;10.70;99.90;;;;;;4960261;28;20179;-70
2022/12/22 12:48:22;;;;;;;13.43;2.92;;;10.70;99.90;;;;;;4939628;29;20059;-68
2022/12/22 12:50:48;;;;;;;17.05;3.08;;;10.70;99.90;;;;;;4941597;29;20031;-68
2022/12/22 12:53:15;;;;;;;16.90;3.00;;;10.80;99.90;;;;;;4945783;29;20024;-68
2022/12/22 12:55:46;;;;;;;12.68;2.58;;;10.80;99.90;;;;;;4949156;28;20046;-68
2022/12/22 12:58:37;;;;;;;18.85;3.25;;;10.80;99.90;;;;;;4961773;28;20110;-68
2022/12/22 13:01:24;;;;;;;19.40;3.15;;;10.80;99.90;;;;;;4961586;28;20046;-68
2022/12/22 13:03:50;;;;;;;20.70;3.00;;;10.80;99.90;;;;;;4940265;28;20032;-66
2022/12/22 13:06:52;;;;;;;15.57;2.80;;;10.80;99.90;;;;;;4959600;28;20034;-71
2022/12/22 13:09:27;;;;;;;17.00;2.45;;;10.80;99.90;;;;;;4976954;28;20030;-68
2022/12/22 13:11:55;;;;;;;23.42;2.70;;;10.90;99.90;;;;;;4979713;28;20053;-66
2022/12/22 13:14:55;;;;;;;23.33;3.95;;;10.80;99.90;;;;;;4977937;28;20387;-67
2022/12/22 13:17:46;;;;;;;22.90;3.30;;;10.80;99.90;;;;;;4958958;28;20015;-67
2022/12/22 13:20:15;;;;;;;22.08;3.13;;;10.80;99.90;;;;;;4969206;28;20029;-65
2022/12/22 13:22:42;;;;;;;25.88;2.92;;;10.70;99.90;;;;;;4977247;28;20022;-67
2022/12/22 13:25:16;;;;;;;29.63;3.30;;;10.70;99.90;;;;;;4964381;28;20035;-67
2022/12/22 13:27:42;;;;;;;23.10;3.88;;;10.70;99.90;;;;;;4963799;28;20081;-67
2022/12/22 13:30:16;;;;;;;23.40;3.42;;;10.60;99.90;;;;;;4969867;28;20118;-67
2022/12/22 13:32:46;;;;;;;22.08;3.38;;;10.70;99.90;;;;;;4958397;28;20511;-67
2022/12/22 13:35:23;;;;;;;19.83;3.35;;;10.70;99.90;;;;;;4958309;28;20510;-67
2022/12/22 13:37:52;;;;;;;26.85;3.13;;;10.70;99.90;;;;;;4956477;28;20338;-67
2022/12/22 13:40:23;;;;;;;27.35;3.60;;;10.70;99.90;;;;;;4957906;28;20058;-67
2022/12/22 13:42:54;;;;;;;21.88;3.50;;;10.70;99.90;;;;;;4957182;28;20388;-66
2022/12/22 13:45:30;;;;;;;28.17;3.40;;;10.80;99.90;;;;;;4966428;28;20480;-68
2022/12/22 13:47:57;;;;;;;26.08;3.60;;;10.70;99.90;;;;;;4957788;28;20106;-67
2022/12/22 13:50:41;;;;;;;28.55;4.38;;;10.80;99.90;;;;;;4956370;29;20113;-68
2022/12/22 13:53:10;;;;;;;27.92;4.15;;;10.80;99.90;;;;;;4975259;28;20054;-68
2022/12/22 13:55:37;;;;;;;25.92;3.33;;;10.80;99.90;;;;;;4970252;28;20053;-67
2022/12/22 13:58:25;;;;;;;20.88;3.40;;;10.80;99.90;;;;;;4957616;28;20038;-68
2022/12/22 14:01:03;;;;;;;27.95;4.75;;;10.80;99.90;;;;;;4956138;29;20027;-68
2022/12/22 14:03:29;;;;;;;32.28;4.63;;;10.80;99.90;;;;;;4971946;28;20476;-69
2022/12/22 14:05:54;;;;;;;29.95;4.95;;;10.90;99.90;;;;;;4968693;28;20085;-65
2022/12/22 14:08:25;;;;;;;32.13;5.10;;;10.90;99.90;;;;;;4956713;29;20451;-66
2022/12/22 14:10:53;;;;;;;31.38;5.55;;;10.80;99.90;;;;;;4946341;28;20495;-65
2022/12/22 14:13:24;;;;;;;29.30;4.38;;;10.80;99.90;;;;;;4963984;28;20050;-64
2022/12/22 14:16:03;;;;;;;25.17;4.55;;;10.80;99.90;;;;;;4975926;28;20041;-64
2022/12/22 14:18:31;;;;;;;31.38;5.78;;;10.80;99.90;;;;;;4961025;28;20027;-67
2022/12/22 14:20:59;;;;;;;26.73;4.80;;;10.80;99.90;;;;;;4962912;28;20027;-66
2022/12/22 14:23:36;;;;;;;28.10;4.82;;;10.80;99.90;;;;;;4975099;28;20027;-66
2022/12/22 14:26:04;;;;;;;26.63;4.63;;;10.90;99.90;;;;;;4961678;28;20034;-65
2022/12/22 14:28:52;;;;;;;22.75;4.22;;;10.90;99.90;;;;;;4955854;29;20019;-66
2022/12/22 14:31:18;;;;;;;24.08;4.18;;;11.00;99.90;;;;;;4954364;28;20097;-63
2022/12/22 14:33:53;;;;;;;22.08;4.45;;;10.90;99.90;;;;;;4955665;28;20477;-68
2022/12/22 14:36:26;;;;;;;23.60;3.97;;;10.90;99.90;;;;;;4945783;28;20027;-70
2022/12/22 14:38:56;;;;;;;15.48;3.17;;;10.90;99.90;;;;;;4975450;28;20019;-70
2022/12/22 14:41:42;;;;;;;21.20;3.70;;;10.90;99.90;;;;;;4965238;28;20040;-67
2022/12/22 14:44:23;;;;;;;24.75;4.55;;;10.90;99.90;;;;;;4954131;28;20086;-67
2022/12/22 14:47:13;;;;;;;29.17;3.30;;;10.90;99.90;;;;;;4957169;28;20028;-74
2022/12/22 14:49:51;;;;;;;21.90;3.92;;;10.90;99.90;;;;;;4948365;29;20043;-69
2022/12/22 14:52:19;;;;;;;21.65;3.60;;;10.90;99.90;;;;;;4954890;28;20029;-68
2022/12/22 14:54:48;;;;;;;26.65;3.67;;;10.90;99.90;;;;;;4943553;28;20043;-69
2022/12/22 14:57:18;;;;;;;28.60;3.92;;;10.90;99.90;;;;;;4935649;29;20031;-70
2022/12/22 15:00:04;;;;;;;18.05;3.40;;;11.00;99.90;;;;;;4937162;29;20035;-70
2022/12/22 15:02:36;;;;;;;19.08;3.30;;;11.10;99.90;;;;;;4940033;28;20461;-71
2022/12/22 15:05:13;;;;;;;21.05;3.58;;;11.10;99.90;;;;;;4975713;28;20538;-72
2022/12/22 15:07:45;;;;;;;25.92;4.00;;;11.10;99.90;;;;;;4974679;28;20121;-72
2022/12/22 15:10:11;;;;;;;23.50;3.17;;;11.20;99.90;;;;;;4967416;28;20034;-72
2022/12/22 15:12:36;;;;;;;21.70;3.20;;;11.20;99.90;;;;;;4957146;28;20027;-77
2022/12/22 15:15:02;;;;;;;20.57;3.77;;;11.20;99.90;;;;;;4956127;28;20035;-73
2022/12/22 15:17:29;;;;;;;22.30;4.22;;;11.20;99.90;;;;;;4953771;29;20027;-72
2022/12/22 15:19:57;;;;;;;19.17;3.28;;;11.20;99.90;;;;;;4959192;28;20117;-73
2022/12/22 15:22:23;;;;;;;25.92;4.15;;;11.20;99.90;;;;;;4975278;28;20454;-72
2022/12/22 15:24:48;;;;;;;26.00;4.13;;;11.20;99.90;;;;;;4974567;28;20256;-73
2022/12/22 15:27:14;;;;;;;18.37;3.20;;;11.20;99.90;;;;;;4973146;28;20503;-73
2022/12/22 15:29:40;;;;;;;18.63;3.40;;;11.20;99.90;;;;;;4976783;28;20387;-72
2022/12/22 15:32:11;;;;;;;24.17;5.30;;;11.30;99.90;;;;;;4974768;28;20030;-71
2022/12/22 15:34:37;;;;;;;17.92;3.60;;;11.20;99.90;;;;;;4975530;28;20258;-72
2022/12/22 15:37:02;;;;;;;20.70;3.70;;;11.20;99.90;;;;;;4964137;28;20050;-72
2022/12/22 15:39:28;;;;;;;21.60;3.83;;;11.20;99.90;;;;;;4955120;28;20106;-73
2022/12/22 15:41:53;;;;;;;16.43;4.63;;;11.20;99.90;;;;;;4954222;29;20066;-73
2022/12/22 15:44:20;;;;;;;14.00;3.13;;;11.20;99.90;;;;;;4955701;28;20122;-73
2022/12/22 15:46:51;;;;;;;;;;;11.30;99.90;;;;;;4971632;28;20610;-73
2022/12/22 15:49:23;;;;;;;12.65;2.40;;;11.20;99.90;;;;;;4976497;28;19906;-73
2022/12/22 15:51:53;;;;;;;16.77;2.97;;;11.30;99.90;;;;;;4974326;28;20128;-72
2022/12/22 15:54:19;;;;;;;15.40;3.35;;;11.20;99.90;;;;;;4976337;28;20030;-72
2022/12/22 15:56:45;;;;;;;18.63;2.88;;;11.20;99.90;;;;;;4975815;28;20043;-72
2022/12/22 15:59:17;;;;;;;15.13;3.28;;;11.10;99.90;;;;;;4975055;28;20031;-73
2022/12/22 16:01:43;;;;;;;19.75;5.38;;;11.10;99.90;;;;;;4975092;28;20033;-73
2022/12/22 16:04:09;;;;;;;22.13;4.15;;;11.10;99.90;;;;;;4965693;28;20024;-72
2022/12/22 16:06:34;;;;;;;22.02;4.68;;;11.20;99.90;;;;;;4958121;28;20102;-72
2022/12/22 16:09:00;;;;;;;17.38;3.30;;;11.20;99.90;;;;;;4959422;28;20110;-73
2022/12/22 16:11:26;;;;;;;17.27;3.57;;;11.20;99.90;;;;;;4959470;29;20452;-73
2022/12/22 16:13:51;;;;;;;14.73;3.03;;;11.10;99.90;;;;;;4968380;28;20027;-72
2022/12/22 16:16:17;;;;;;;16.27;3.20;;;11.10;99.90;;;;;;4977952;28;20039;-72
2022/12/22 16:18:43;;;;;;;20.80;3.77;;;11.00;99.90;;;;;;4979379;28;20023;-72
2022/12/22 16:21:21;;;;;;;21.13;3.77;;;10.90;99.90;;;;;;4968155;28;20024;-72
2022/12/22 16:23:48;;;;;;;15.30;3.95;;;10.90;99.90;;;;;;4959867;28;20027;-72
2022/12/22 16:26:18;;;;;;;19.45;3.00;;;10.90;99.90;;;;;;4957893;28;20027;-72
2022/12/22 16:28:43;;;;;;;16.92;3.17;;;10.90;99.90;;;;;;4958623;28;20046;-72
2022/12/22 16:31:20;;;;;;;20.83;3.43;;;10.80;99.90;;;;;;4973611;28;20483;-72
2022/12/22 16:33:47;;;;;;;20.02;3.13;;;10.90;99.90;;;;;;4980927;28;20147;-72
2022/12/22 16:36:12;;;;;;;23.38;4.88;;;10.90;99.90;;;;;;4976260;28;20050;-72
2022/12/22 16:38:38;;;;;;;23.80;3.60;;;10.90;99.90;;;;;;4959419;28;20055;-72
2022/12/22 16:41:05;;;;;;;24.45;6.47;;;10.90;99.90;;;;;;4963778;28;20444;-71
2022/12/22 16:43:37;;;;;;;17.38;3.95;;;10.90;99.90;;;;;;4962196;28;20089;-72
2022/12/22 16:46:04;;;;;;;19.42;4.40;;;10.90;99.90;;;;;;4957541;28;20436;-73
2022/12/22 16:48:38;;;;;;;18.77;3.60;;;10.90;99.90;;;;;;4958940;28;20023;-73
2022/12/22 16:51:04;;;;;;;23.48;5.80;;;10.70;99.90;;;;;;4962182;28;20034;-73
2022/12/22 16:53:30;;;;;;;21.58;3.33;;;10.60;99.90;;;;;;4958889;28;20027;-72
2022/12/22 16:55:59;;;;;;;17.60;4.57;;;10.70;99.90;;;;;;4958135;28;20027;-73
2022/12/22 16:58:25;;;;;;;23.35;4.07;;;10.80;99.90;;;;;;4958171;28;20023;-71
2022/12/22 17:00:50;;;;;;;23.17;3.50;;;10.70;99.90;;;;;;4958224;28;20027;-73
2022/12/22 17:03:22;;;;;;;19.07;4.30;;;10.80;99.90;;;;;;4970657;28;20030;-73
2022/12/22 17:05:58;;;;;;;21.30;4.78;;;10.70;99.90;;;;;;4976195;28;20281;-72
2022/12/22 17:08:33;;;;;;;16.98;4.07;;;10.80;99.90;;;;;;4964003;28;20034;-72
2022/12/22 17:11:02;;;;;;;17.67;4.25;;;10.90;99.90;;;;;;4976233;28;20523;-72
2022/12/22 17:13:27;;;;;;;12.23;2.92;;;10.90;99.90;;;;;;4975555;28;20395;-73
2022/12/22 17:15:53;;;;;;;24.75;3.60;;;11.00;99.90;;;;;;4976829;28;20035;-69
2022/12/22 17:18:23;;;;;;;20.27;3.30;;;11.10;99.90;;;;;;4975067;28;20150;-68
2022/12/22 17:20:53;;;;;;;23.90;4.22;;;11.10;99.90;;;;;;4976739;28;20073;-68
2022/12/22 17:23:31;;;;;;;20.17;3.58;;;11.10;99.90;;;;;;4975536;28;20038;-68
2022/12/22 17:25:59;;;;;;;21.70;4.72;;;11.10;99.90;;;;;;4962957;28;20027;-69
2022/12/22 17:28:24;;;;;;;20.13;4.00;;;11.10;99.90;;;;;;4965585;28;20027;-72
2022/12/22 17:30:50;;;;;;;15.63;3.63;;;11.10;99.90;;;;;;4976968;28;20027;-69
2022/12/22 17:33:16;;;;;;;23.00;3.40;;;11.10;99.90;;;;;;4962167;28;20058;-71
2022/12/22 17:35:44;;;;;;;19.88;4.25;;;11.10;99.90;;;;;;4957934;28;20480;-69
2022/12/22 17:38:19;;;;;;;22.50;6.82;;;11.00;99.90;;;;;;4957939;28;20076;-70
2022/12/22 17:40:46;;;;;;;21.58;4.13;;;10.90;99.90;;;;;;4953554;28;20020;-69
2022/12/22 17:43:16;;;;;;;18.48;4.05;;;11.10;99.90;;;;;;4936742;29;20032;-69
2022/12/22 17:45:46;;;;;;;25.83;4.43;;;11.20;99.90;;;;;;4938576;29;20031;-71
2022/12/22 17:48:12;;;;;;;26.77;4.45;;;11.10;99.90;;;;;;4937413;29;20039;-71
2022/12/22 17:50:39;;;;;;;18.77;4.68;;;11.00;99.90;;;;;;4937834;29;20091;-71
2022/12/22 17:53:08;;;;;;;17.90;4.03;;;11.10;99.90;;;;;;4937617;29;20035;-72
2022/12/22 17:55:34;;;;;;;21.58;4.82;;;11.20;99.90;;;;;;4944312;29;20020;-70
2022/12/22 17:58:00;;;;;;;17.20;3.70;;;11.20;99.90;;;;;;4948101;28;20535;-72
2022/12/22 18:00:30;;;;;;;20.77;4.30;;;11.20;99.90;;;;;;4956798;28;20263;-71
2022/12/22 18:02:56;;;;;;;16.17;3.42;;;11.20;99.90;;;;;;4955656;29;20034;-71